Etusivu
METAR-TAF:

METAR-TAF

Lentoasemat :

Zhengzhou, Kiina

Leveyspiiri: 34-43N, Pituuspiiri: 113-39E, korkeus merenpinnasta: 111 m

Tämänhetkinen sää

Tämä raportti tehtiin 51 minuuttia sitten, kello 10.00 UTC
Tuuli 6 kn kaakosta, vaihdellen idän ja etelän välillä
Lämpötila 29°C
Kosteus 40%
Ilmanpaine 1013 hPa
Näkyvyys 10 km tai enemmän
ei pilviä alle 1500 m:ssä eikä cumulonimbus-pilviä

METAR: ZHCC 211000Z 14003MPS 100V190 CAVOK 29/14 Q1013 NOSIG

Aika: 18:51 (10:51 UTC)

Sääennuste

Tämä raportti tehtiin 7 tuntia ja 42 minuuttia sitten, kello 03.09 UTC
Ennuste voimassa 21. päivästä klo 06 UTC - 22. päivään klo 06 UTC
Tuuli 6 kn etelästä/kaakosta
Näkyvyys: 5000 m
usvaa,

TAF: ZHCC 210309Z 2106/2206 15003MPS 5000 HZ NSC TX31/2107Z TN20/2122Z

Säähavainnot ja -ennusteet yli 4000 lentoasemalta (METAR- ja TAF-raportit).

Käytössä olevat sääasemat on merkitty karttaan keltaisilla ja punaisilla pisteillä.

Aseta hiiri pisteen päälle nähdäksesi sääaseman nimen.

Klikkaa sitten nähdäksesi säähavainnot ja -ennusteet.

Kartan vaihtaminen: klikkaa mustalla rastilla varustettuja vihreitä pisteitä, niin voit zoomata sisään; viivalla varustettua vihreää pistettä, niin voit zoomata ulos tai vihreitä nuolia, niin pääset viereisille kartoille.


METAR-TAF: